Terminal Aerodrome Forecast
Issued by NWS

Home | Current Version | Previous Version | Text Only | Print | Product List | Glossary On
Versions: 1 2 3 4 5 6 7 8 9 10 11 12 13 14
875
FTUS46 KSTO 261731
TAFSAC
TAF
KSAC 261731Z 2618/2718 18006KT P6SM OVC050
     FM270000 18007KT P6SM -SHRA SCT030 OVC060
      TEMPO 2704/2708 BKN025
     FM271200 22006KT P6SM BKN050=

USA.gov is the U.S. government's official web portal to all federal, state and local government web resources and services.